createdAt,value
2022-09-30T00:00:48.657Z,38.94
2022-09-30T00:03:38.913Z,38.87
2022-09-30T00:06:28.382Z,39.08
2022-09-30T00:09:16.659Z,38.95
2022-09-30T00:12:04.837Z,39.08
2022-09-30T00:14:52.710Z,38.90
2022-09-30T00:17:40.465Z,39.01
2022-09-30T00:20:28.251Z,39.16
2022-09-30T00:23:16.285Z,39.17
2022-09-30T00:26:15.645Z,39.23
2022-09-30T00:29:04.705Z,39.05
2022-09-30T00:31:52.498Z,39.28
2022-09-30T00:34:40.257Z,39.19
2022-09-30T00:37:28.022Z,39.22
2022-09-30T00:40:15.831Z,39.27
2022-09-30T00:43:03.573Z,39.15
2022-09-30T00:45:57.635Z,39.16
2022-09-30T00:48:47.685Z,39.13
2022-09-30T00:51:45.842Z,39.11
2022-09-30T00:54:34.638Z,39.31
2022-09-30T00:57:22.388Z,39.35
2022-09-30T01:00:10.455Z,39.11
2022-09-30T01:02:58.274Z,39.19
2022-09-30T01:05:46.086Z,39.47
2022-09-30T01:08:37.715Z,39.44
2022-09-30T01:11:27.752Z,39.44
2022-09-30T01:14:24.110Z,39.18
2022-09-30T01:17:22.982Z,39.32
2022-09-30T01:20:47.153Z,39.23
2022-09-30T01:23:49.795Z,39.25
2022-09-30T01:27:17.097Z,39.45
2022-09-30T01:30:15.319Z,39.19
2022-09-30T01:33:10.482Z,39.68
2022-09-30T01:36:32.507Z,39.65
2022-09-30T01:39:46.301Z,39.54
2022-09-30T01:42:54.920Z,39.33
2022-09-30T01:45:56.601Z,39.35
2022-09-30T01:48:56.211Z,39.53
2022-09-30T01:52:05.855Z,39.55
2022-09-30T01:55:08.487Z,39.60
2022-09-30T01:58:11.633Z,39.23
2022-09-30T02:01:03.516Z,39.54
2022-09-30T02:04:02.807Z,39.64
2022-09-30T02:06:57.025Z,39.72
2022-09-30T02:10:00.032Z,39.65
2022-09-30T02:12:56.097Z,39.64
2022-09-30T02:15:52.957Z,39.57
2022-09-30T02:18:52.116Z,39.45
2022-09-30T02:21:43.192Z,39.25
2022-09-30T02:24:37.075Z,39.54
2022-09-30T02:27:41.525Z,39.59
2022-09-30T02:30:30.035Z,39.68
2022-09-30T02:33:25.330Z,39.37
2022-09-30T02:37:02.029Z,39.49
2022-09-30T02:40:32.041Z,39.42
2022-09-30T02:43:21.410Z,39.82
2022-09-30T02:46:21.136Z,39.61
2022-09-30T02:49:22.942Z,39.87
2022-09-30T02:52:43.254Z,39.51
2022-09-30T02:55:56.412Z,39.78
2022-09-30T02:58:46.045Z,39.44
2022-09-30T03:01:33.852Z,39.80
2022-09-30T03:04:31.077Z,39.76
2022-09-30T03:07:19.046Z,39.69
2022-09-30T03:10:18.236Z,39.89
2022-09-30T03:13:23.841Z,39.52
2022-09-30T03:16:39.204Z,39.70
2022-09-30T03:19:57.227Z,39.58
2022-09-30T03:22:55.458Z,39.63
2022-09-30T03:26:29.808Z,39.84
2022-09-30T03:29:45.124Z,39.86
2022-09-30T03:32:57.834Z,39.89
2022-09-30T03:36:39.989Z,39.51
2022-09-30T03:39:37.356Z,39.59
2022-09-30T03:42:41.332Z,39.90
2022-09-30T03:45:46.561Z,39.81
2022-09-30T03:48:37.832Z,39.81
2022-09-30T03:51:25.893Z,39.77
2022-09-30T03:54:14.424Z,39.94
2022-09-30T03:57:05.081Z,39.73
2022-09-30T03:59:52.835Z,39.82
2022-09-30T04:02:40.717Z,39.75
2022-09-30T04:05:28.434Z,39.90
2022-09-30T04:08:16.915Z,39.67
2022-09-30T04:11:05.567Z,39.53
2022-09-30T04:13:53.296Z,39.70
2022-09-30T04:16:41.401Z,39.88
2022-09-30T04:19:29.275Z,39.87
2022-09-30T04:22:17.119Z,39.78
2022-09-30T04:25:05.469Z,39.79
2022-09-30T04:27:54.539Z,39.70
2022-09-30T04:30:42.250Z,39.69
2022-09-30T04:33:30.153Z,39.87
2022-09-30T04:36:18.329Z,39.81
2022-09-30T04:39:06.477Z,39.99
2022-09-30T04:41:54.216Z,39.75
2022-09-30T04:44:41.925Z,39.66
2022-09-30T04:47:30.109Z,39.76
2022-09-30T04:50:18.254Z,39.88
2022-09-30T04:53:06.454Z,40.08
2022-09-30T04:56:00.213Z,39.83
2022-09-30T04:58:47.990Z,39.66
2022-09-30T05:01:36.002Z,39.68
2022-09-30T05:04:23.721Z,39.81
2022-09-30T05:07:11.623Z,40.09
2022-09-30T05:09:59.531Z,40.06
2022-09-30T05:12:47.486Z,40.05
2022-09-30T05:15:35.634Z,39.83
2022-09-30T05:18:26.361Z,40.03
2022-09-30T05:21:18.240Z,39.77
2022-09-30T05:24:06.015Z,40.08
2022-09-30T05:26:53.839Z,40.19
2022-09-30T05:29:42.301Z,40.55
2022-09-30T05:32:31.636Z,40.81
2022-09-30T05:35:19.493Z,40.76
2022-09-30T05:38:09.114Z,41.08
2022-09-30T05:40:56.917Z,41.16
2022-09-30T05:43:45.358Z,41.30
2022-09-30T05:46:33.233Z,41.04
2022-09-30T05:49:22.123Z,41.02
2022-09-30T05:52:09.982Z,41.20
2022-09-30T05:55:01.000Z,40.96
2022-09-30T05:57:50.628Z,41.22
2022-09-30T06:00:42.561Z,40.91
2022-09-30T06:03:30.311Z,41.10
2022-09-30T06:06:19.633Z,40.94
2022-09-30T06:09:07.417Z,41.04
2022-09-30T06:11:58.058Z,40.53
2022-09-30T06:14:45.816Z,40.59
2022-09-30T06:17:34.505Z,40.29
2022-09-30T06:20:22.519Z,40.28
2022-09-30T06:23:10.310Z,40.52
2022-09-30T06:25:59.003Z,40.37
2022-09-30T06:28:46.762Z,40.44
2022-09-30T06:31:34.628Z,40.23
2022-09-30T06:34:22.469Z,39.79
2022-09-30T06:37:12.389Z,40.03
2022-09-30T06:40:00.204Z,40.12
2022-09-30T06:42:49.741Z,39.68
2022-09-30T06:45:38.280Z,39.61
2022-09-30T06:48:36.991Z,39.75
2022-09-30T06:51:26.307Z,39.81
2022-09-30T06:54:14.166Z,39.46
2022-09-30T06:57:02.121Z,39.49
2022-09-30T06:59:50.886Z,39.46
2022-09-30T07:02:39.929Z,39.35
2022-09-30T07:05:27.850Z,39.17
2022-09-30T07:08:15.754Z,39.03
2022-09-30T07:11:16.413Z,39.16
2022-09-30T07:14:05.914Z,39.00
2022-09-30T07:16:53.766Z,38.96
2022-09-30T07:19:41.598Z,38.75
2022-09-30T07:22:32.037Z,38.53
2022-09-30T07:25:19.897Z,38.97
2022-09-30T07:28:07.641Z,38.58
2022-09-30T07:31:13.468Z,38.69
2022-09-30T07:34:09.011Z,38.42
2022-09-30T07:36:56.785Z,38.42
2022-09-30T07:39:48.061Z,38.43
2022-09-30T07:42:44.919Z,38.28
2022-09-30T07:45:32.819Z,37.99
2022-09-30T07:48:58.896Z,37.99
2022-09-30T07:51:46.659Z,37.74
2022-09-30T07:54:38.827Z,37.83
2022-09-30T07:57:29.668Z,37.89
2022-09-30T08:00:41.173Z,37.98
2022-09-30T08:03:25.439Z,37.51
2022-09-30T08:06:19.535Z,37.88
2022-09-30T08:09:08.335Z,37.40
2022-09-30T08:11:56.227Z,37.38
2022-09-30T08:14:44.796Z,37.67
2022-09-30T08:17:32.536Z,37.32
2022-09-30T08:20:22.633Z,37.31
2022-09-30T08:23:10.592Z,37.10
2022-09-30T08:26:06.774Z,36.27
2022-09-30T08:28:54.966Z,36.95
2022-09-30T08:31:42.803Z,36.07
2022-09-30T08:34:33.854Z,36.30
2022-09-30T08:37:24.489Z,35.82
2022-09-30T08:40:32.620Z,35.66
2022-09-30T08:43:50.437Z,35.42
2022-09-30T08:46:45.228Z,35.35
2022-09-30T08:50:08.961Z,35.40
2022-09-30T08:53:11.028Z,35.66
2022-09-30T08:56:02.702Z,35.46
2022-09-30T08:58:56.968Z,35.54
2022-09-30T09:01:49.004Z,35.23
2022-09-30T09:04:36.893Z,35.21
2022-09-30T09:07:36.480Z,35.67
2022-09-30T09:10:43.205Z,35.51
2022-09-30T09:13:52.075Z,35.19
2022-09-30T09:17:00.221Z,35.29
2022-09-30T09:20:05.250Z,35.03
2022-09-30T09:22:52.945Z,35.09
2022-09-30T09:25:41.125Z,35.17
2022-09-30T09:28:46.469Z,35.43
2022-09-30T09:31:35.074Z,35.27
2022-09-30T09:34:26.669Z,35.25
2022-09-30T09:37:18.943Z,34.99
2022-09-30T09:40:32.425Z,35.10
2022-09-30T09:43:43.818Z,35.33
2022-09-30T09:46:48.270Z,35.08
2022-09-30T09:49:40.102Z,35.20
2022-09-30T09:52:57.768Z,35.27
2022-09-30T09:55:45.647Z,35.39
2022-09-30T09:58:34.638Z,35.36
2022-09-30T10:01:32.813Z,35.12
2022-09-30T10:04:27.223Z,35.09
2022-09-30T10:07:15.503Z,35.21
2022-09-30T10:10:23.099Z,35.16
2022-09-30T10:13:37.994Z,34.90
2022-09-30T10:16:36.999Z,34.97
2022-09-30T10:19:30.937Z,35.03
2022-09-30T10:22:20.874Z,35.02
2022-09-30T10:25:14.180Z,34.99
2022-09-30T10:28:22.681Z,35.02
2022-09-30T10:31:36.101Z,34.74
2022-09-30T10:34:40.505Z,34.72
2022-09-30T10:37:28.274Z,34.77
2022-09-30T10:40:19.064Z,34.84
2022-09-30T10:43:37.565Z,34.79
2022-09-30T10:46:39.112Z,34.63
2022-09-30T10:50:00.012Z,31.82
2022-09-30T10:52:59.561Z,32.05
2022-09-30T10:55:47.313Z,32.79
2022-09-30T10:58:50.053Z,33.43
2022-09-30T11:01:46.786Z,33.22
2022-09-30T11:04:40.116Z,33.13
2022-09-30T11:07:44.645Z,33.24
2022-09-30T11:10:57.848Z,33.23
2022-09-30T11:14:11.131Z,33.20
2022-09-30T11:17:23.270Z,32.96
2022-09-30T11:20:25.454Z,33.18
2022-09-30T11:23:32.884Z,33.31
2022-09-30T11:26:42.313Z,33.22
2022-09-30T11:29:42.571Z,33.31
2022-09-30T11:33:01.023Z,33.19
2022-09-30T11:36:42.885Z,33.30
2022-09-30T11:39:59.076Z,33.39
2022-09-30T11:42:57.990Z,33.34
2022-09-30T11:46:36.545Z,33.23
2022-09-30T11:50:06.748Z,33.36
2022-09-30T11:53:16.542Z,33.53
2022-09-30T11:56:23.038Z,33.34
2022-09-30T11:59:27.006Z,33.46
2022-09-30T12:02:44.581Z,33.71
2022-09-30T12:05:43.824Z,33.74
2022-09-30T12:08:38.214Z,33.47
2022-09-30T12:11:49.776Z,31.40
2022-09-30T12:15:00.129Z,30.94
2022-09-30T12:17:54.880Z,31.42
2022-09-30T12:20:54.083Z,31.72
2022-09-30T12:23:51.215Z,31.60
2022-09-30T12:26:41.431Z,32.07
2022-09-30T12:29:56.225Z,31.36
2022-09-30T12:33:26.920Z,31.98
2022-09-30T12:36:40.581Z,32.26
2022-09-30T12:39:50.877Z,31.97
2022-09-30T12:43:07.017Z,32.09
2022-09-30T12:46:19.513Z,32.30
2022-09-30T12:49:15.676Z,32.35
2022-09-30T12:52:13.966Z,31.63
2022-09-30T12:55:09.955Z,31.76
2022-09-30T12:58:01.334Z,31.58
2022-09-30T13:01:15.653Z,31.71
2022-09-30T13:04:03.309Z,31.51
2022-09-30T13:06:50.939Z,31.52
2022-09-30T13:10:22.048Z,31.79
2022-09-30T13:13:35.091Z,31.72
2022-09-30T13:17:03.216Z,31.84
2022-09-30T13:19:53.177Z,31.74
2022-09-30T13:22:43.153Z,31.75
2022-09-30T13:25:54.396Z,31.68
2022-09-30T13:28:42.201Z,31.91
2022-09-30T13:31:49.854Z,32.03
2022-09-30T13:34:55.432Z,31.97
2022-09-30T13:37:43.151Z,32.03
2022-09-30T13:40:57.138Z,32.14
2022-09-30T13:43:50.902Z,32.04
2022-09-30T13:46:51.784Z,32.71
2022-09-30T13:49:58.015Z,32.55
2022-09-30T13:52:59.131Z,32.31
2022-09-30T13:55:50.896Z,32.64
2022-09-30T13:59:00.333Z,32.93
2022-09-30T14:02:29.446Z,32.39
2022-09-30T14:05:35.139Z,32.57
2022-09-30T14:08:41.047Z,32.87
